Time;durP1;ratioP1;P1;durP2;ratioP2;P2;SDS_P1;SDS_P2;PMS_P1;PMS_P2;Temp;Humidity;BMP_temperature;BMP_pressure;BME280_temperature;BME280_humidity;BME280_pressure;Samples;Min_cycle;Max_cycle;Signal;HPM_P1;HPM_P2
2021/12/26 17:05:19;;;;;;;13.02;8.55;;;;;;;-1.57;81.98;100021.84;695121;28;20592;-83
2021/12/26 17:05:39;;;;;;;14.30;9.23;;;;;;;-1.52;81.65;100020.47;695505;28;1122;-82
2021/12/26 17:06:00;;;;;;;14.68;9.68;;;;;;;-1.41;81.04;100029.72;690214;28;830;-82
2021/12/26 17:06:24;;;;;;;16.60;10.65;;;;;;;-1.40;80.49;100026.41;690052;28;1075;-82
2021/12/26 17:06:47;;;;;;;20.05;11.48;;;;;;;-1.42;79.94;100012.59;692683;28;1208;-82
2021/12/26 17:07:08;;;;;;;22.60;12.32;;;;;;;-1.38;79.36;100023.91;690132;28;1085;-82
2021/12/26 17:07:30;;;;;;;23.75;13.70;;;;;;;-1.41;78.51;100013.50;692834;28;1174;-82
2021/12/26 17:08:08;;;;;;;24.75;15.07;;;;;;;-1.17;77.71;100029.50;684941;28;875;-82
2021/12/26 17:08:30;;;;;;;24.52;15.07;;;;;;;-1.19;77.38;100013.19;687203;28;1420;-85
2021/12/26 17:08:52;;;;;;;24.23;14.65;;;;;;;-1.15;77.16;100012.59;687348;28;1775;-85
2021/12/26 17:09:13;;;;;;;24.30;14.23;;;;;;;-1.08;76.84;100013.84;689688;28;1097;-85
2021/12/26 17:09:33;;;;;;;25.98;14.85;;;;;;;-1.03;76.64;100022.72;691463;28;1285;-85
2021/12/26 17:10:13;;;;;;;24.73;14.80;;;;;;;-0.98;76.39;100020.44;692719;28;1210;-85
2021/12/26 17:10:33;;;;;;;24.17;14.55;;;;;;;-0.95;76.37;100018.06;691564;28;1580;-85
2021/12/26 17:10:54;;;;;;;22.88;13.82;;;;;;;-0.92;76.24;100020.84;687533;28;784;-85
2021/12/26 17:11:15;;;;;;;22.15;13.45;;;;;;;-0.91;76.57;100022.59;684640;28;1052;-85
2021/12/26 17:11:35;;;;;;;22.80;13.77;;;;;;;-0.94;76.56;100014.72;685544;28;1045;-85
2021/12/26 17:11:57;;;;;;;23.03;13.63;;;;;;;-0.92;76.52;100020.84;687415;28;1215;-85
2021/12/26 17:12:17;;;;;;;22.17;13.80;;;;;;;-0.94;76.79;100011.28;690083;28;1729;-85
2021/12/26 17:12:38;;;;;;;20.50;13.50;;;;;;;-0.92;76.60;100015.72;685904;28;1256;-85
2021/12/26 17:12:59;;;;;;;18.85;13.27;;;;;;;-0.95;76.90;100012.94;688246;28;1199;-85
2021/12/26 17:13:19;;;;;;;20.13;13.38;;;;;;;-0.96;77.17;100011.19;689573;28;1803;-85
2021/12/26 17:13:40;;;;;;;20.50;13.50;;;;;;;-0.94;77.31;100017.28;686007;28;1591;-85
2021/12/26 17:14:00;;;;;;;20.60;13.60;;;;;;;-0.96;77.36;100008.63;690206;28;1327;-85
2021/12/26 17:14:21;;;;;;;18.65;12.82;;;;;;;-0.93;77.50;100013.03;684670;28;1056;-85
2021/12/26 17:14:42;;;;;;;17.27;12.57;;;;;;;-0.95;77.90;100015.50;687386;28;948;-85
2021/12/26 17:15:04;;;;;;;19.90;13.30;;;;;;;-0.92;78.17;100015.72;684865;28;1139;-84
2021/12/26 17:15:24;;;;;;;21.33;13.73;;;;;;;-0.91;78.40;100016.59;690051;28;1379;-85
2021/12/26 17:15:45;;;;;;;22.27;14.10;;;;;;;-0.99;78.23;100004.19;687480;28;1064;-85
2021/12/26 17:16:05;;;;;;;20.52;13.52;;;;;;;-0.98;78.73;100005.09;690171;28;1070;-85
2021/12/26 17:16:26;;;;;;;20.60;13.90;;;;;;;-0.95;78.56;100012.94;684891;28;1228;-85
2021/12/26 17:16:46;;;;;;;20.20;13.90;;;;;;;-0.98;78.56;100003.38;687578;28;1189;-85
2021/12/26 17:17:07;;;;;;;20.20;14.23;;;;;;;-0.94;79.02;100012.16;687288;28;1172;-85
2021/12/26 17:17:28;;;;;;;18.93;13.30;;;;;;;-0.95;79.04;100005.25;684786;28;1172;-85
2021/12/26 17:17:48;;;;;;;19.77;13.20;;;;;;;-0.92;79.23;100013.16;689980;28;1294;-85
2021/12/26 17:18:09;;;;;;;19.50;12.65;;;;;;;-0.93;79.09;100008.78;687302;28;1140;-85
2021/12/26 17:18:29;;;;;;;19.17;12.50;;;;;;;-0.96;79.19;100000.94;692571;28;1301;-85
2021/12/26 17:18:50;;;;;;;18.42;12.80;;;;;;;-0.95;79.29;100005.25;687595;28;1234;-85
2021/12/26 17:19:11;;;;;;;18.27;13.35;;;;;;;-0.88;79.68;100017.66;684812;28;1259;-85
2021/12/26 17:19:32;;;;;;;22.58;14.13;;;;;;;-0.98;79.66;100003.38;688459;28;1378;-85
2021/12/26 17:19:53;;;;;;;22.48;13.55;;;;;;;-0.99;79.55;100004.19;687689;28;1373;-85
2021/12/26 17:20:14;;;;;;;21.10;12.85;;;;;;;-0.90;79.89;100020.91;689910;28;1223;-84
2021/12/26 17:20:35;;;;;;;17.80;12.27;;;;;;;-0.90;79.78;100016.69;689994;28;1031;-84
2021/12/26 17:20:57;;;;;;;18.20;12.40;;;;;;;-0.97;79.97;100006.84;687528;28;1207;-85
2021/12/26 17:21:18;;;;;;;20.85;12.80;;;;;;;-0.95;79.97;100010.38;684820;28;1040;-85
2021/12/26 17:21:39;;;;;;;20.55;12.68;;;;;;;-0.96;79.94;100005.19;685923;28;1239;-85
2021/12/26 17:22:02;;;;;;;19.58;12.30;;;;;;;-0.96;80.17;100003.50;688244;28;1477;-84
2021/12/26 17:22:23;;;;;;;18.42;12.60;;;;;;;-0.94;80.13;100001.03;690182;28;1216;-85
2021/12/26 17:22:43;;;;;;;19.20;12.57;;;;;;;-0.98;80.15;99998.25;689997;28;1174;-86
2021/12/26 17:23:06;;;;;;;19.50;12.90;;;;;;;-0.94;79.92;99996.78;684686;28;1333;-85
2021/12/26 17:23:27;;;;;;;18.20;12.48;;;;;;;-0.92;80.26;100000.34;687467;28;1275;-85
2021/12/26 17:23:47;;;;;;;17.33;12.00;;;;;;;-0.90;80.20;99997.84;681781;29;1154;-85
2021/12/26 17:24:08;;;;;;;17.63;12.00;;;;;;;-0.91;80.21;100002.13;690018;28;1157;-85
2021/12/26 17:24:30;;;;;;;20.65;12.45;;;;;;;-0.90;80.24;100006.44;692143;28;1431;-85
2021/12/26 17:24:51;;;;;;;20.85;12.60;;;;;;;-0.93;80.15;99997.69;684918;28;1206;-85
2021/12/26 17:25:12;;;;;;;19.92;12.30;;;;;;;-0.83;80.21;100009.38;684634;28;1977;-85
2021/12/26 17:25:33;;;;;;;18.35;12.48;;;;;;;-0.85;80.38;100015.31;687403;28;1040;-85
2021/12/26 17:25:54;;;;;;;20.27;12.80;;;;;;;-0.96;80.09;99988.13;687386;28;1374;-85
2021/12/26 17:26:14;;;;;;;20.63;13.00;;;;;;;-0.91;79.98;99997.00;690180;28;1097;-85
2021/12/26 17:26:36;;;;;;;19.42;12.70;;;;;;;-0.93;80.28;99997.69;687347;28;1134;-85
2021/12/26 17:26:57;;;;;;;18.50;12.45;;;;;;;-0.91;80.21;99999.56;687385;28;843;-85
2021/12/26 17:27:21;;;;;;;18.73;12.57;;;;;;;-0.81;80.51;100010.34;690086;28;969;-85
2021/12/26 17:27:41;;;;;;;18.95;12.40;;;;;;;-0.82;80.37;100001.78;685731;28;1071;-85
2021/12/26 17:28:02;;;;;;;20.90;12.47;;;;;;;-0.87;80.07;99998.06;687510;28;1051;-85
2021/12/26 17:28:23;;;;;;;20.58;12.75;;;;;;;-0.83;80.11;100006.81;686504;28;1364;-85
2021/12/26 17:28:44;;;;;;;20.50;12.77;;;;;;;-0.87;80.12;100001.50;687167;28;1095;-85
2021/12/26 17:29:06;;;;;;;18.63;12.80;;;;;;;-0.88;80.11;99993.75;690056;28;1259;-85
2021/12/26 17:29:27;;;;;;;19.65;12.80;;;;;;;-0.91;80.09;99991.88;686878;28;1186;-85
2021/12/26 17:29:52;;;;;;;20.10;13.43;;;;;;;-0.89;80.12;99994.50;684692;28;1232;-85
2021/12/26 17:30:17;;;;;;;20.05;13.48;;;;;;;-0.86;80.08;99994.72;690150;28;1254;-85
2021/12/26 17:30:38;;;;;;;19.42;13.02;;;;;;;-0.89;80.14;99999.63;688006;28;1123;-85
2021/12/26 17:30:59;;;;;;;20.13;12.85;;;;;;;-0.90;80.09;99995.28;682874;28;1160;-84
2021/12/26 17:31:19;;;;;;;19.05;12.70;;;;;;;-0.90;80.28;99993.63;679527;29;1089;-85
2021/12/26 17:31:40;;;;;;;19.20;12.80;;;;;;;-0.89;80.21;99995.41;683512;28;1231;-85
2021/12/26 17:32:00;;;;;;;18.50;12.65;;;;;;;-0.88;80.15;99997.16;684072;28;1430;-85
2021/12/26 17:32:23;;;;;;;19.03;12.53;;;;;;;-0.87;80.33;99998.94;684362;28;1258;-85
2021/12/26 17:32:46;;;;;;;19.95;13.07;;;;;;;-0.87;80.41;99992.94;687314;28;1323;-86
2021/12/26 17:33:06;;;;;;;18.95;12.93;;;;;;;-0.91;80.00;99993.53;684552;28;1345;-86
2021/12/26 17:33:27;;;;;;;18.30;12.70;;;;;;;-0.80;80.43;100009.56;682253;29;936;-85
2021/12/26 17:33:48;;;;;;;18.58;12.88;;;;;;;-0.86;80.25;99990.44;687384;28;1230;-85
2021/12/26 17:34:08;;;;;;;19.53;13.10;;;;;;;-0.89;80.15;99984.25;687446;28;1309;-85
2021/12/26 17:34:29;;;;;;;20.63;13.75;;;;;;;-0.80;80.47;99997.66;687416;28;886;-85
2021/12/26 17:34:50;;;;;;;21.88;13.90;;;;;;;-0.80;80.33;99999.31;690139;28;1159;-85
2021/12/26 17:35:10;;;;;;;21.60;13.80;;;;;;;-0.78;80.09;99996.06;687296;28;1117;-85
2021/12/26 17:35:32;;;;;;;21.90;13.47;;;;;;;-0.79;80.12;99995.97;692814;28;1204;-85
2021/12/26 17:35:52;;;;;;;20.52;13.20;;;;;;;-0.71;80.29;100011.03;692911;28;850;-85
2021/12/26 17:36:13;;;;;;;21.30;13.63;;;;;;;-0.76;80.46;99991.03;687397;28;1211;-85
2021/12/26 17:36:33;;;;;;;20.07;13.50;;;;;;;-0.77;80.28;99991.81;687953;28;1254;-85
2021/12/26 17:36:54;;;;;;;22.17;14.38;;;;;;;-0.80;79.98;99984.84;684695;28;1386;-85
2021/12/26 17:37:15;;;;;;;21.50;13.97;;;;;;;-0.78;80.31;99990.94;688809;28;1234;-85
2021/12/26 17:37:35;;;;;;;22.23;14.20;;;;;;;-0.79;80.06;99993.41;688152;28;1113;-85
2021/12/26 17:37:56;;;;;;;22.77;13.75;;;;;;;-0.80;80.03;99989.06;687542;28;1216;-85
2021/12/26 17:38:16;;;;;;;23.23;14.10;;;;;;;-0.83;80.12;99988.91;686831;28;1085;-85
2021/12/26 17:38:38;;;;;;;20.77;13.90;;;;;;;-0.78;80.23;99992.59;682943;28;1418;-85
2021/12/26 17:38:59;;;;;;;18.52;13.10;;;;;;;-0.83;80.14;99982.06;690113;28;1366;-85
2021/12/26 17:39:19;;;;;;;19.13;13.07;;;;;;;-0.79;80.12;99988.28;689325;28;1058;-85
2021/12/26 17:39:41;;;;;;;20.40;13.00;;;;;;;-0.74;80.11;99995.44;688893;28;1110;-85
2021/12/26 17:40:03;;;;;;;21.27;13.48;;;;;;;-0.81;79.99;99977.91;684729;28;1051;-85
2021/12/26 17:40:23;;;;;;;19.70;12.88;;;;;;;-0.78;80.14;99990.94;687266;28;1113;-85
2021/12/26 17:40:44;;;;;;;19.37;13.17;;;;;;;-0.79;80.29;99985.72;689144;28;1269;-85
2021/12/26 17:41:05;;;;;;;17.67;12.63;;;;;;;-0.72;79.99;99998.09;692838;28;1264;-84
2021/12/26 17:41:26;;;;;;;19.35;12.98;;;;;;;-0.71;79.85;99994.75;687287;28;1500;-85
2021/12/26 17:41:46;;;;;;;20.83;13.40;;;;;;;-0.66;80.01;99997.59;684854;28;1147;-85
2021/12/26 17:42:07;;;;;;;22.75;14.07;;;;;;;-0.67;79.96;100000.94;684536;28;1180;-85
2021/12/26 17:42:28;;;;;;;23.42;14.23;;;;;;;-0.69;79.93;99990.63;689690;28;1708;-83
2021/12/26 17:42:49;;;;;;;22.23;13.80;;;;;;;-0.65;79.99;99999.34;692820;28;1131;-85
2021/12/26 17:43:09;;;;;;;21.45;13.85;;;;;;;-0.75;80.04;99992.81;687376;28;1255;-85
2021/12/26 17:43:30;;;;;;;20.10;13.33;;;;;;;-0.68;79.87;99999.19;687384;28;1298;-84
2021/12/26 17:43:50;;;;;;;19.20;13.00;;;;;;;-0.79;79.92;99975.47;692939;28;779;-86
2021/12/26 17:44:11;;;;;;;20.00;13.40;;;;;;;-0.76;79.81;99983.34;692786;28;1045;-85
2021/12/26 17:44:32;;;;;;;85.22;42.38;;;;;;;-0.75;79.62;99990.25;690482;28;1055;-86
2021/12/26 17:44:54;;;;;;;74.15;35.83;;;;;;;-0.79;79.79;99978.03;688503;28;1524;-85
2021/12/26 17:45:15;;;;;;;75.82;36.47;;;;;;;-0.69;80.04;99993.19;684554;28;1978;-86
2021/12/26 17:45:35;;;;;;;71.53;33.87;;;;;;;-0.69;80.08;99992.28;684567;28;1016;-85
2021/12/26 17:45:56;;;;;;;71.00;36.55;;;;;;;-0.75;80.14;99983.44;690004;28;1043;-86
2021/12/26 17:46:17;;;;;;;67.20;34.50;;;;;;;-0.73;79.93;99987.00;690060;28;968;-85
2021/12/26 17:46:37;;;;;;;45.75;25.73;;;;;;;-0.72;79.97;99987.84;690519;28;1106;-85
2021/12/26 17:46:59;;;;;;;45.93;25.20;;;;;;;-0.74;79.89;99980.06;687750;28;752;-85
2021/12/26 17:47:20;;;;;;;50.13;26.80;;;;;;;-0.69;79.98;99985.50;681987;29;1401;-85
2021/12/26 17:47:41;;;;;;;53.17;27.52;;;;;;;-0.65;79.83;99991.66;688721;28;1369;-85
2021/12/26 17:48:03;;;;;;;44.10;23.80;;;;;;;-0.62;79.96;99995.31;690221;28;1037;-85
2021/12/26 17:48:25;;;;;;;33.05;18.67;;;;;;;-0.72;79.86;99977.59;690260;28;1077;-85
2021/12/26 17:48:47;;;;;;;29.33;16.92;;;;;;;-0.70;80.02;99986.25;689785;28;1105;-84
2021/12/26 17:49:07;;;;;;;27.45;16.25;;;;;;;-0.73;80.07;99981.88;689835;28;1904;-85
2021/12/26 17:49:28;;;;;;;25.23;15.15;;;;;;;-0.74;79.88;99972.38;687139;28;739;-85
2021/12/26 17:49:49;;;;;;;22.75;14.13;;;;;;;-0.73;80.07;99971.63;682069;28;1422;-85
2021/12/26 17:50:11;;;;;;;22.07;13.40;;;;;;;-0.52;79.79;99995.88;690121;28;1008;-84
2021/12/26 17:50:31;;;;;;;20.83;13.05;;;;;;;-0.52;79.63;99980.50;690178;28;1569;-85
2021/12/26 17:50:53;;;;;;;20.70;12.93;;;;;;;-0.46;79.68;99991.09;688962;28;1259;-85
2021/12/26 17:51:14;;;;;;;19.23;12.75;;;;;;;-0.58;79.83;99981.91;689965;28;1293;-85
2021/12/26 17:51:35;;;;;;;21.02;12.80;;;;;;;-0.50;79.74;99994.28;687346;28;1468;-84
2021/12/26 17:51:55;;;;;;;22.02;13.25;;;;;;;-0.54;79.48;99988.09;684648;28;1629;-84
2021/12/26 17:52:16;;;;;;;22.70;13.33;;;;;;;-0.53;79.59;99988.97;687304;28;1173;-83
2021/12/26 17:52:37;;;;;;;22.70;13.63;;;;;;;-0.61;79.65;99975.69;687179;28;1483;-85
2021/12/26 17:52:58;;;;;;;23.83;13.60;;;;;;;-0.60;79.63;99983.50;689991;28;1255;-85
2021/12/26 17:53:20;;;;;;;22.67;13.53;;;;;;;-0.53;79.75;99983.84;690174;28;1018;-84
2021/12/26 17:53:41;;;;;;;21.30;13.05;;;;;;;-0.41;79.39;99989.72;687411;28;1169;-85
2021/12/26 17:54:02;;;;;;;19.20;12.70;;;;;;;-0.34;79.27;99993.50;687565;28;749;-85
2021/12/26 17:54:22;;;;;;;18.45;12.50;;;;;;;-0.42;79.16;99977.69;687320;28;1160;-85
2021/12/26 17:54:43;;;;;;;18.80;13.03;;;;;;;-0.36;79.06;99985.75;690055;28;1081;-85
2021/12/26 17:55:05;;;;;;;20.03;12.80;;;;;;;-0.44;78.99;99980.16;684790;28;1115;-85
2021/12/26 17:55:26;;;;;;;20.38;12.80;;;;;;;-0.44;79.03;99986.97;687331;28;1239;-84
2021/12/26 17:55:48;;;;;;;18.75;12.18;;;;;;;-0.42;78.86;99982.81;681354;28;1192;-85
2021/12/26 17:56:09;;;;;;;18.98;12.20;;;;;;;-0.39;79.10;99979.56;682148;28;1312;-85
2021/12/26 17:56:30;;;;;;;19.60;12.30;;;;;;;-0.49;78.52;99973.00;684688;28;1052;-84
2021/12/26 17:56:51;;;;;;;21.42;13.00;;;;;;;-0.30;78.73;100001.47;687419;28;1330;-85
2021/12/26 17:57:12;;;;;;;21.38;12.77;;;;;;;-0.30;78.87;99990.34;687049;28;1416;-85
2021/12/26 17:57:34;;;;;;;20.42;12.90;;;;;;;-0.44;78.53;99971.59;687713;28;1274;-85
2021/12/26 17:57:55;;;;;;;18.02;12.05;;;;;;;-0.32;78.45;99982.56;687349;28;1189;-84
2021/12/26 17:58:16;;;;;;;17.55;12.13;;;;;;;-0.31;78.61;99979.19;687215;28;1087;-84
2021/12/26 17:58:37;;;;;;;18.45;12.00;;;;;;;-0.27;78.59;99981.97;686218;28;924;-85
2021/12/26 17:58:57;;;;;;;19.58;12.35;;;;;;;-0.34;78.21;99981.59;690164;28;834;-85
2021/12/26 17:59:18;;;;;;;18.88;12.50;;;;;;;-0.34;78.14;99976.47;688017;28;1484;-85
2021/12/26 17:59:39;;;;;;;18.00;12.35;;;;;;;-0.25;78.23;99988.06;683248;28;1214;-84
2021/12/26 18:00:00;;;;;;;17.60;12.20;;;;;;;-0.30;78.22;99978.41;684954;28;1531;-85
2021/12/26 18:00:21;;;;;;;17.60;11.80;;;;;;;-0.26;78.03;99981.16;692617;28;1167;-85
2021/12/26 18:00:42;;;;;;;18.88;12.05;;;;;;;-0.31;77.91;99974.06;692797;28;1276;-85
2021/12/26 18:01:04;;;;;;;18.23;12.10;;;;;;;-0.21;78.22;99998.59;684692;28;1318;-84
2021/12/26 18:01:25;;;;;;;17.35;12.10;;;;;;;-0.30;78.02;99977.53;690017;28;1206;-85
2021/12/26 18:01:49;;;;;;;17.38;12.20;;;;;;;-0.26;77.97;99983.72;690402;28;1169;-85
2021/12/26 18:02:09;;;;;;;17.17;11.80;;;;;;;-0.25;77.92;99982.94;690009;28;1153;-85
2021/12/26 18:02:30;;;;;;;18.40;11.90;;;;;;;-0.20;78.06;99995.22;684806;28;1272;-84
2021/12/26 18:02:51;;;;;;;17.60;11.70;;;;;;;-0.28;77.82;99975.94;681985;28;771;-85
2021/12/26 18:03:12;;;;;;;18.48;12.07;;;;;;;-0.25;77.94;99988.06;689950;28;1376;-85
2021/12/26 18:03:34;;;;;;;19.10;12.30;;;;;;;-0.41;77.97;99971.75;685478;28;1199;-85
2021/12/26 18:03:54;;;;;;;19.58;12.55;;;;;;;-0.46;78.02;99973.16;690213;28;1244;-84
2021/12/26 18:04:16;;;;;;;18.40;12.27;;;;;;;-0.31;78.26;99986.03;684684;28;1166;-84
2021/12/26 18:04:36;;;;;;;17.77;12.00;;;;;;;-0.41;78.01;99982.00;690924;28;1325;-84
2021/12/26 18:04:57;;;;;;;17.50;11.95;;;;;;;-0.39;78.24;99987.25;690427;28;1958;-85
2021/12/26 18:05:19;;;;;;;16.80;11.80;;;;;;;-0.41;78.18;99979.44;687314;28;1495;-85
2021/12/26 18:05:40;;;;;;;16.58;11.70;;;;;;;-0.42;78.42;99980.25;687337;28;1209;-85
2021/12/26 18:06:01;;;;;;;16.50;11.45;;;;;;;-0.38;78.58;99989.88;695271;28;1754;-85
2021/12/26 18:06:21;;;;;;;17.73;11.77;;;;;;;-0.41;78.22;99976.00;692729;28;1064;-85
2021/12/26 18:06:42;;;;;;;18.23;12.30;;;;;;;-0.36;78.23;99989.97;688947;28;1068;-85
2021/12/26 18:07:03;;;;;;;17.13;11.77;;;;;;;-0.40;78.28;99978.66;687525;28;973;-85
2021/12/26 18:07:23;;;;;;;16.40;11.70;;;;;;;-0.48;78.71;99965.41;681935;29;1764;-84
2021/12/26 18:07:45;;;;;;;17.02;12.00;;;;;;;-0.38;78.31;99983.88;686631;28;1110;-83
2021/12/26 18:08:05;;;;;;;19.15;13.10;;;;;;;-0.45;78.46;99965.56;690030;28;1020;-84
2021/12/26 18:08:26;;;;;;;20.17;13.07;;;;;;;-0.34;78.25;99991.84;684753;28;1274;-84
2021/12/26 18:08:48;;;;;;;19.90;12.75;;;;;;;-0.40;78.27;99970.97;689843;28;1361;-84
2021/12/26 18:09:09;;;;;;;18.00;11.98;;;;;;;-0.38;77.95;99964.25;689423;28;1495;-84
2021/12/26 18:09:29;;;;;;;17.10;11.80;;;;;;;-0.26;78.15;99968.34;694815;28;1261;-84
2021/12/26 18:09:50;;;;;;;18.07;11.63;;;;;;;-0.25;77.94;99970.09;695560;28;790;-84
2021/12/26 18:10:12;;;;;;;18.60;12.10;;;;;;;-0.26;77.95;99973.47;692771;28;1101;-84
2021/12/26 18:10:34;;;;;;;19.40;12.30;;;;;;;-0.26;78.16;99976.03;691187;28;1524;-84
2021/12/26 18:10:54;;;;;;;18.80;12.30;;;;;;;-0.15;77.86;99982.66;689997;28;1805;-84
2021/12/26 18:11:15;;;;;;;19.10;12.35;;;;;;;-0.22;77.78;99963.47;682474;28;1250;-84
2021/12/26 18:11:36;;;;;;;17.23;12.20;;;;;;;-0.23;77.86;99979.66;685089;28;1086;-84
2021/12/26 18:11:58;;;;;;;17.80;12.25;;;;;;;-0.34;77.88;99962.75;684684;28;1419;-85
2021/12/26 18:12:18;;;;;;;17.08;11.70;;;;;;;-0.33;77.79;99967.97;684409;28;1131;-84
2021/12/26 18:12:40;;;;;;;19.35;12.77;;;;;;;-0.20;77.68;99973.84;684647;28;1036;-84
2021/12/26 18:13:03;;;;;;;20.63;13.60;;;;;;;-0.25;77.94;99976.13;684013;28;1096;-84
2021/12/26 18:13:23;;;;;;;20.50;13.20;;;;;;;-0.28;77.58;99975.06;684786;28;1987;-84
2021/12/26 18:13:44;;;;;;;18.80;12.77;;;;;;;-0.23;77.64;99964.28;681991;28;1340;-85
2021/12/26 18:14:06;;;;;;;17.55;12.23;;;;;;;-0.27;77.82;99979.41;679356;29;1316;-84
2021/12/26 18:14:28;;;;;;;18.30;12.60;;;;;;;-0.28;77.96;99982.75;687502;28;913;-85
2021/12/26 18:14:48;;;;;;;20.10;12.32;;;;;;;-0.27;77.66;99962.31;687270;28;1303;-85
2021/12/26 18:15:19;;;;;;;20.20;12.27;;;;;;;-0.11;77.48;99987.19;683872;28;1264;-84
2021/12/26 18:15:40;;;;;;;19.23;12.40;;;;;;;-0.24;77.48;99977.00;689892;28;940;-85
2021/12/26 18:16:01;;;;;;;19.50;12.53;;;;;;;-0.30;77.52;99970.72;692897;28;775;-85
2021/12/26 18:16:21;;;;;;;20.13;12.67;;;;;;;-0.38;77.44;99964.25;692740;28;1340;-84
2021/12/26 18:16:42;;;;;;;20.13;12.43;;;;;;;-0.27;77.74;99981.97;685602;28;1095;-84
2021/12/26 18:17:03;;;;;;;19.30;12.20;;;;;;;-0.39;77.76;99969.31;682743;29;1168;-85
2021/12/26 18:17:24;;;;;;;19.33;12.38;;;;;;;-0.33;77.91;99979.94;685532;28;1450;-84
2021/12/26 18:17:45;;;;;;;19.40;12.77;;;;;;;-0.37;77.90;99966.03;688373;28;1060;-84
2021/12/26 18:18:06;;;;;;;20.60;12.88;;;;;;;-0.34;77.95;99968.78;690854;28;1146;-84
2021/12/26 18:18:27;;;;;;;20.40;13.40;;;;;;;-0.35;77.96;99974.69;683130;29;748;-84
2021/12/26 18:18:47;;;;;;;19.50;12.95;;;;;;;-0.40;78.15;99973.53;684981;28;1211;-84
2021/12/26 18:19:08;;;;;;;18.42;12.65;;;;;;;-0.38;78.28;99979.63;688029;28;1156;-84
2021/12/26 18:19:28;;;;;;;17.77;11.90;;;;;;;-0.34;78.02;99967.88;687568;28;1439;-84
2021/12/26 18:19:49;;;;;;;18.92;11.95;;;;;;;-0.40;78.18;99965.84;688919;28;1154;-85
2021/12/26 18:20:13;;;;;;;20.67;12.10;;;;;;;-0.40;78.06;99970.97;687126;28;1749;-84
2021/12/26 18:20:36;;;;;;;22.63;12.90;;;;;;;-0.27;77.83;99971.69;685913;28;1090;-84
2021/12/26 18:20:58;;;;;;;21.45;13.32;;;;;;;-0.25;78.28;99986.38;690946;28;1404;-85
2021/12/26 18:21:19;;;;;;;19.60;13.05;;;;;;;-0.39;77.91;99959.91;687991;28;1271;-84
2021/12/26 18:21:40;;;;;;;18.63;12.55;;;;;;;-0.40;78.16;99970.97;686959;28;1720;-84
2021/12/26 18:22:00;;;;;;;18.08;12.35;;;;;;;-0.41;78.11;99965.75;685558;28;1049;-84
2021/12/26 18:22:21;;;;;;;18.57;12.57;;;;;;;-0.32;77.94;99979.13;680241;29;1017;-84
2021/12/26 18:22:42;;;;;;;18.05;12.43;;;;;;;-0.40;77.84;99970.97;681990;28;1359;-84
2021/12/26 18:23:04;;;;;;;20.20;12.38;;;;;;;-0.32;77.88;99984.25;682783;29;1181;-84
2021/12/26 18:23:25;;;;;;;19.30;11.93;;;;;;;-0.31;77.86;99984.31;682801;29;1377;-84
2021/12/26 18:23:46;;;;;;;18.93;11.80;;;;;;;-0.32;77.92;99977.44;681665;29;1124;-84
2021/12/26 18:24:06;;;;;;;17.13;11.90;;;;;;;-0.38;77.99;99969.38;688098;28;1099;-84
2021/12/26 18:24:27;;;;;;;17.48;12.15;;;;;;;-0.41;77.91;99969.19;685354;28;1036;-84
2021/12/26 18:24:48;;;;;;;16.90;12.07;;;;;;;-0.35;78.13;99974.69;684310;28;1451;-85
2021/12/26 18:25:09;;;;;;;17.20;11.80;;;;;;;-0.36;77.93;99967.81;679976;29;1957;-84
2021/12/26 18:25:31;;;;;;;16.75;11.88;;;;;;;-0.33;77.86;99972.25;685304;28;1360;-84
2021/12/26 18:25:52;;;;;;;17.35;12.05;;;;;;;-0.37;78.07;99967.72;682907;28;1196;-84
2021/12/26 18:26:12;;;;;;;18.35;12.25;;;;;;;-0.35;77.97;99973.81;685375;28;1075;-84
2021/12/26 18:26:34;;;;;;;19.63;12.70;;;;;;;-0.38;77.68;99966.81;683115;28;1242;-84
2021/12/26 18:26:55;;;;;;;19.05;12.55;;;;;;;-0.40;77.95;99958.16;685453;28;1298;-84
2021/12/26 18:27:15;;;;;;;17.67;12.38;;;;;;;-0.32;77.60;99980.00;685269;28;1278;-85
2021/12/26 18:27:37;;;;;;;18.42;12.52;;;;;;;-0.35;77.74;99969.56;684967;28;1043;-84
2021/12/26 18:27:58;;;;;;;17.00;11.77;;;;;;;-0.28;77.86;99980.19;685464;28;1226;-84
2021/12/26 18:28:19;;;;;;;17.95;11.57;;;;;;;-0.26;77.94;99984.59;682692;29;1179;-84
2021/12/26 18:28:39;;;;;;;17.80;11.40;;;;;;;-0.31;77.89;99968.94;690868;28;1162;-84
2021/12/26 18:29:00;;;;;;;18.75;12.05;;;;;;;-0.30;77.74;99970.72;685517;28;1142;-84
2021/12/26 18:29:21;;;;;;;18.10;12.20;;;;;;;-0.30;77.86;99973.28;683100;28;1109;-83
2021/12/26 18:29:41;;;;;;;17.67;12.10;;;;;;;-0.30;77.75;99973.28;680629;29;1115;-84
2021/12/26 18:30:14;;;;;;;17.80;11.93;;;;;;;-0.23;77.79;99989.03;688146;28;1200;-84
2021/12/26 18:30:35;;;;;;;17.60;11.70;;;;;;;-0.32;77.64;99969.75;688064;28;1170;-84
2021/12/26 18:30:56;;;;;;;18.20;11.90;;;;;;;-0.22;77.56;99971.16;682904;28;1265;-84
2021/12/26 18:31:17;;;;;;;20.65;12.07;;;;;;;-0.18;77.77;99977.38;685088;28;1181;-84
2021/12/26 18:31:37;;;;;;;21.95;12.40;;;;;;;-0.25;77.68;99965.88;687666;28;1261;-84
2021/12/26 18:31:58;;;;;;;22.05;12.38;;;;;;;-0.11;77.54;99971.81;685497;28;910;-84
2021/12/26 18:32:19;;;;;;;18.33;11.95;;;;;;;-0.09;77.40;99970.22;682664;28;1197;-84
2021/12/26 18:32:44;;;;;;;17.05;11.85;;;;;;;-0.06;77.24;99975.50;683855;28;1206;-84
2021/12/26 18:33:05;;;;;;;18.05;11.80;;;;;;;-0.17;77.37;99963.75;680152;28;1289;-84
2021/12/26 18:33:30;;;;;;;18.02;11.70;;;;;;;-0.19;77.33;99965.34;682867;29;1096;-84
2021/12/26 18:33:53;;;;;;;16.83;11.55;;;;;;;-0.19;77.08;99970.47;688293;28;762;-84
2021/12/26 18:34:14;;;;;;;18.38;11.65;;;;;;;-0.26;77.36;99960.66;687034;28;1689;-84
2021/12/26 18:34:35;;;;;;;18.63;11.77;;;;;;;-0.20;77.33;99976.41;683771;28;1283;-84
2021/12/26 18:34:55;;;;;;;20.00;12.50;;;;;;;-0.27;77.54;99961.44;680310;29;1730;-84
2021/12/26 18:35:17;;;;;;;19.23;12.02;;;;;;;-0.27;77.60;99951.19;680154;29;1522;-85
2021/12/26 18:35:39;;;;;;;19.63;12.40;;;;;;;-0.17;77.57;99981.69;685309;28;1124;-84
2021/12/26 18:36:00;;;;;;;18.70;12.38;;;;;;;-0.13;77.73;99978.53;688126;28;1354;-84
2021/12/26 18:36:21;;;;;;;19.05;12.82;;;;;;;-0.22;77.54;99965.16;685475;28;1058;-84
2021/12/26 18:36:43;;;;;;;19.20;12.43;;;;;;;-0.24;77.50;99959.06;681688;29;1080;-84
2021/12/26 18:37:04;;;;;;;19.60;12.35;;;;;;;-0.27;77.69;99958.88;688161;28;1119;-84
2021/12/26 18:37:24;;;;;;;19.60;12.40;;;;;;;-0.27;77.50;99953.75;688379;28;1179;-84
2021/12/26 18:37:52;;;;;;;19.53;12.20;;;;;;;-0.20;77.58;99966.16;685179;28;1424;-84
2021/12/26 18:38:13;;;;;;;19.30;12.65;;;;;;;-0.13;77.37;99965.72;685254;28;1217;-84
2021/12/26 18:38:34;;;;;;;19.33;12.50;;;;;;;-0.23;77.69;99956.59;688092;28;1452;-84
2021/12/26 18:38:55;;;;;;;19.35;12.90;;;;;;;-0.18;77.79;99952.59;688209;28;787;-84
2021/12/26 18:39:16;;;;;;;20.05;13.15;;;;;;;-0.16;77.59;99952.69;687618;28;1167;-84
2021/12/26 18:39:37;;;;;;;20.58;13.40;;;;;;;-0.19;77.68;99963.66;682611;28;1275;-84
2021/12/26 18:39:58;;;;;;;20.85;13.30;;;;;;;-0.22;77.71;99966.03;682612;29;1497;-85
2021/12/26 18:40:23;;;;;;;22.13;13.40;;;;;;;-0.16;77.81;99970.63;685038;28;1480;-84
2021/12/26 18:40:44;;;;;;;22.85;13.48;;;;;;;-0.15;77.76;99962.16;687103;28;965;-84
2021/12/26 18:41:05;;;;;;;23.15;13.57;;;;;;;-0.21;77.88;99951.56;687738;28;1404;-84
2021/12/26 18:41:26;;;;;;;21.95;13.40;;;;;;;-0.18;77.72;99955.16;683505;28;1174;-84
2021/12/26 18:41:46;;;;;;;22.50;13.55;;;;;;;-0.21;77.69;99955.00;688238;28;1065;-84
2021/12/26 18:42:07;;;;;;;22.83;13.53;;;;;;;-0.27;77.39;99946.06;687630;28;1191;-84
2021/12/26 18:42:27;;;;;;;23.45;13.45;;;;;;;-0.24;77.38;99956.47;685624;28;1297;-84
2021/12/26 18:42:53;;;;;;;21.70;13.70;;;;;;;-0.18;77.75;99956.84;682121;28;1240;-84
2021/12/26 18:43:13;;;;;;;21.38;13.65;;;;;;;-0.22;77.63;99960.03;687959;28;1119;-84
2021/12/26 18:43:34;;;;;;;21.13;13.60;;;;;;;-0.23;77.37;99951.47;688080;28;1198;-85
2021/12/26 18:43:55;;;;;;;22.40;14.45;;;;;;;-0.28;77.71;99957.97;690975;28;755;-84
2021/12/26 18:44:16;;;;;;;23.27;14.60;;;;;;;-0.26;77.67;99955.53;688060;28;1157;-84
2021/12/26 18:44:36;;;;;;;24.17;14.43;;;;;;;-0.19;78.01;99960.22;686224;28;1150;-84
2021/12/26 18:44:57;;;;;;;25.10;13.73;;;;;;;-0.22;77.57;99960.03;685437;28;1328;-84
2021/12/26 18:45:19;;;;;;;25.80;14.38;;;;;;;-0.21;77.64;99946.44;685258;28;1888;-84